WIDD/BTH METAR and TAF weather

Enter ICAO airport designator
Station Type Date Time Source
WIDD METAR 2020/01/28 03:30 UTC NOAA

WIDD 280330Z 06013KT 9999 SCT014 30/24 Q1013


Station Type Date Time Source
WIDD Decoded METAR 2020/01/28 03:30 UTC NOAA

Station name not available
Jan 27, 2020 - 10:30 PM EST / 2020.01.28 0330 UTC
Wind: from the ENE (060 degrees) at 15 MPH (13 KT):0
Visibility: greater than 7 mile(s):0
Sky conditions: partly cloudy
Temperature: 86 F (30 C)
Heat index: 95.0 F (35.0 C):1
Dew Point: 75 F (24 C)
Relative Humidity: 70%
Pressure (altimeter): 29.91 in. Hg (1013 hPa)
ob: WIDD 280330Z 06013KT 9999 SCT014 30/24 Q1013
cycle: 3

Station Type Date Time Source
WIDD TAF 2020/01/28 06:00 UTC NOAA

TAF WIDD 280500Z 2806/2906 05012KT 9999 SCT014=

Example: see airport list